createdAt,value
2017-11-13T00:00:01.429Z,1.50
2017-11-13T00:03:24.978Z,1.50
2017-11-13T00:06:48.499Z,1.50
2017-11-13T00:10:12.016Z,1.73
2017-11-13T00:13:35.548Z,1.67
2017-11-13T00:16:59.789Z,1.40
2017-11-13T00:20:23.270Z,1.50
2017-11-13T00:23:46.855Z,2.00
2017-11-13T00:27:10.312Z,1.67
2017-11-13T00:30:33.927Z,1.50
2017-11-13T00:33:57.516Z,1.80
2017-11-13T00:37:21.784Z,1.33
2017-11-13T00:40:45.283Z,1.63
2017-11-13T00:44:09.539Z,1.80
2017-11-13T00:47:33.056Z,1.60
2017-11-13T00:50:56.624Z,1.27
2017-11-13T00:54:20.122Z,1.37
2017-11-13T00:57:43.607Z,1.87
2017-11-13T01:01:07.221Z,1.70
2017-11-13T01:04:32.217Z,1.30
2017-11-13T01:07:55.830Z,1.30
2017-11-13T01:11:19.425Z,1.40
2017-11-13T01:14:42.967Z,1.50
2017-11-13T01:18:07.232Z,1.50
2017-11-13T01:21:30.716Z,1.50
2017-11-13T01:24:55.059Z,1.30
2017-11-13T01:28:18.718Z,1.37
2017-11-13T01:31:42.236Z,1.37
2017-11-13T01:35:05.739Z,1.10
2017-11-13T01:38:29.971Z,1.50
2017-11-13T01:41:53.470Z,1.50
2017-11-13T01:45:17.036Z,1.90
2017-11-13T01:48:40.536Z,1.33
2017-11-13T01:52:04.014Z,1.40
2017-11-13T01:55:28.258Z,1.00
2017-11-13T01:58:51.952Z,1.03
2017-11-13T02:02:16.375Z,0.87
2017-11-13T02:05:40.616Z,0.80
2017-11-13T02:09:04.305Z,1.10
2017-11-13T02:12:27.916Z,1.40
2017-11-13T02:15:51.810Z,1.00
2017-11-13T02:19:15.497Z,1.30
2017-11-13T02:22:38.964Z,1.17
2017-11-13T02:26:02.466Z,1.33
2017-11-13T02:29:26.019Z,1.20
2017-11-13T02:32:50.279Z,1.37
2017-11-13T02:36:14.531Z,1.17
2017-11-13T02:39:38.068Z,1.37
2017-11-13T02:43:01.722Z,1.17
2017-11-13T02:46:26.152Z,1.57
2017-11-13T02:49:49.692Z,1.40
2017-11-13T02:53:13.170Z,1.10
2017-11-13T02:56:36.804Z,1.23
2017-11-13T03:00:00.303Z,1.10
2017-11-13T03:03:23.816Z,1.27
2017-11-13T03:06:47.324Z,1.30
2017-11-13T03:10:10.828Z,1.20
2017-11-13T03:13:35.079Z,1.43
2017-11-13T03:16:58.557Z,1.10
2017-11-13T03:20:22.048Z,1.53
2017-11-13T03:23:45.612Z,1.13
2017-11-13T03:27:09.095Z,1.27
2017-11-13T03:30:32.593Z,1.60
2017-11-13T03:33:56.855Z,1.80
2017-11-13T03:37:21.092Z,0.90
2017-11-13T03:40:44.678Z,1.30
2017-11-13T03:44:08.196Z,1.13
2017-11-13T03:47:31.724Z,1.10
2017-11-13T03:50:55.271Z,0.80
2017-11-13T03:54:18.776Z,1.10
2017-11-13T03:57:42.506Z,1.10
2017-11-13T04:01:06.065Z,1.17
2017-11-13T04:04:29.638Z,1.13
2017-11-13T04:07:53.185Z,1.13
2017-11-13T04:11:16.669Z,1.00
2017-11-13T04:14:40.190Z,1.00
2017-11-13T04:18:03.869Z,0.93
2017-11-13T04:21:28.077Z,0.90
2017-11-13T04:24:51.570Z,0.87
2017-11-13T04:28:15.064Z,0.90
2017-11-13T04:31:40.140Z,1.30
2017-11-13T04:35:03.628Z,1.00
2017-11-13T04:38:27.092Z,0.80
2017-11-13T04:41:50.577Z,1.30
2017-11-13T04:45:14.047Z,1.00
2017-11-13T04:48:37.572Z,1.00
2017-11-13T04:52:01.087Z,0.73
2017-11-13T04:55:24.552Z,1.40
2017-11-13T04:58:48.087Z,0.87
2017-11-13T05:02:11.604Z,1.00
2017-11-13T05:05:35.083Z,1.03
2017-11-13T05:08:58.545Z,1.10
2017-11-13T05:12:22.225Z,0.93
2017-11-13T05:15:45.709Z,0.83
2017-11-13T05:19:09.216Z,0.70
2017-11-13T05:22:32.695Z,1.20
2017-11-13T05:25:56.206Z,1.00
2017-11-13T05:29:19.686Z,0.80
2017-11-13T05:32:44.345Z,1.10
2017-11-13T05:36:08.645Z,1.00
2017-11-13T05:39:32.107Z,1.00
2017-11-13T05:42:55.580Z,0.70
2017-11-13T05:46:19.057Z,1.03
2017-11-13T05:49:42.546Z,0.60
2017-11-13T05:53:06.021Z,0.77
2017-11-13T05:56:29.524Z,1.23
2017-11-13T05:59:53.771Z,1.20
2017-11-13T06:03:17.287Z,1.23
2017-11-13T06:06:40.900Z,1.17
2017-11-13T06:10:04.369Z,1.17
2017-11-13T06:13:27.861Z,1.00
2017-11-13T06:16:51.493Z,1.07
2017-11-13T06:20:15.747Z,1.07
2017-11-13T06:23:39.268Z,0.90
2017-11-13T06:27:03.521Z,1.20
2017-11-13T06:30:26.992Z,0.80
2017-11-13T06:33:50.488Z,1.00
2017-11-13T06:37:13.999Z,1.30
2017-11-13T06:40:37.488Z,1.00
2017-11-13T06:44:00.976Z,1.20
2017-11-13T06:47:24.472Z,1.17
2017-11-13T06:50:48.787Z,0.97
2017-11-13T06:54:13.229Z,1.27
2017-11-13T06:57:36.684Z,1.10
2017-11-13T07:01:00.279Z,1.47
2017-11-13T07:04:23.749Z,1.00
2017-11-13T07:07:47.294Z,1.60
2017-11-13T07:11:10.775Z,1.63
2017-11-13T07:14:34.591Z,1.60
2017-11-13T07:17:58.120Z,2.27
2017-11-13T07:21:21.589Z,2.00
2017-11-13T07:24:45.080Z,2.13
2017-11-13T07:28:08.673Z,1.30
2017-11-13T07:31:32.478Z,2.00
2017-11-13T07:34:56.729Z,1.70
2017-11-13T07:38:20.250Z,1.90
2017-11-13T07:41:44.504Z,1.23
2017-11-13T07:45:08.084Z,1.63
2017-11-13T07:48:33.081Z,1.50
2017-11-13T07:51:56.623Z,1.53
2017-11-13T07:55:20.122Z,1.53
2017-11-13T07:58:44.433Z,1.50
2017-11-13T08:02:07.920Z,1.60
2017-11-13T08:05:32.148Z,1.67
2017-11-13T08:08:55.650Z,1.80
2017-11-13T08:12:19.205Z,2.00
2017-11-13T08:15:42.722Z,1.60
2017-11-13T08:19:06.985Z,1.97
2017-11-13T08:22:30.494Z,1.60
2017-11-13T08:25:54.741Z,1.77
2017-11-13T08:29:18.219Z,2.10
2017-11-13T08:32:42.548Z,2.00
2017-11-13T08:36:06.784Z,2.10
2017-11-13T08:39:30.311Z,2.13
2017-11-13T08:42:54.536Z,2.10
2017-11-13T08:46:18.056Z,2.00
2017-11-13T08:49:42.091Z,2.30
2017-11-13T08:53:05.570Z,2.10
2017-11-13T08:56:29.060Z,2.03
2017-11-13T08:59:52.515Z,2.13
2017-11-13T09:03:16.131Z,2.57
2017-11-13T09:06:40.377Z,2.20
2017-11-13T09:10:04.107Z,1.97
2017-11-13T09:13:27.612Z,2.70
2017-11-13T09:16:51.129Z,2.27
2017-11-13T09:20:14.626Z,1.70
2017-11-13T09:23:38.879Z,1.97
2017-11-13T09:27:02.372Z,2.47
2017-11-13T09:30:26.666Z,2.20
2017-11-13T09:33:50.209Z,1.63
2017-11-13T09:37:13.748Z,2.17
2017-11-13T09:40:38.120Z,2.03
2017-11-13T09:44:02.370Z,2.13
2017-11-13T09:47:25.999Z,2.20
2017-11-13T09:50:49.781Z,1.77
2017-11-13T09:54:13.322Z,2.10
2017-11-13T09:57:36.843Z,2.23
2017-11-13T10:01:00.535Z,2.50
2017-11-13T10:04:24.069Z,2.20
2017-11-13T10:07:48.345Z,2.50
2017-11-13T10:11:11.846Z,2.30
2017-11-13T10:14:35.353Z,2.40
2017-11-13T10:17:58.831Z,2.43
2017-11-13T10:21:22.327Z,1.70
2017-11-13T10:24:45.804Z,1.90
2017-11-13T10:28:09.276Z,2.70
2017-11-13T10:31:32.755Z,2.33
2017-11-13T10:34:57.139Z,2.80
2017-11-13T10:38:22.143Z,2.70
2017-11-13T10:41:45.706Z,2.43
2017-11-13T10:45:09.223Z,2.57
2017-11-13T10:48:32.919Z,2.37
2017-11-13T10:51:56.725Z,3.73
2017-11-13T10:55:20.655Z,2.57
2017-11-13T10:58:44.157Z,2.33
2017-11-13T11:02:07.617Z,2.40
2017-11-13T11:05:31.148Z,2.17
2017-11-13T11:08:54.637Z,2.03
2017-11-13T11:12:20.447Z,2.20
2017-11-13T11:15:58.685Z,2.00
2017-11-13T11:19:23.920Z,2.63
2017-11-13T11:22:54.146Z,2.23
2017-11-13T11:26:23.349Z,2.30
2017-11-13T11:30:01.733Z,1.90
2017-11-13T11:37:27.124Z,2.30
2017-11-13T11:40:51.344Z,2.33
2017-11-13T11:44:26.254Z,1.73
2017-11-13T11:51:57.191Z,1.80
2017-11-13T11:55:23.235Z,1.40
2017-11-13T11:58:47.723Z,2.13
2017-11-13T12:02:11.214Z,2.23
2017-11-13T12:05:34.845Z,1.90
2017-11-13T12:08:58.334Z,2.67
2017-11-13T12:12:22.411Z,2.33
2017-11-13T12:15:46.005Z,2.40
2017-11-13T12:19:10.268Z,2.40
2017-11-13T12:22:33.760Z,2.20
2017-11-13T12:25:57.334Z,2.07
2017-11-13T12:29:20.865Z,1.60
2017-11-13T12:32:44.641Z,1.53
2017-11-13T12:36:08.052Z,1.60
2017-11-13T12:39:31.666Z,1.80
2017-11-13T12:42:55.146Z,2.17
2017-11-13T12:46:18.640Z,1.60
2017-11-13T12:49:42.296Z,1.93
2017-11-13T12:53:05.785Z,2.30
2017-11-13T12:56:29.332Z,1.60
2017-11-13T12:59:52.825Z,2.27
2017-11-13T13:03:16.310Z,1.80
2017-11-13T13:06:39.818Z,2.30
2017-11-13T13:10:04.040Z,3.00
2017-11-13T13:13:27.763Z,2.40
2017-11-13T13:16:51.265Z,1.80
2017-11-13T13:20:14.774Z,2.27
2017-11-13T13:23:38.250Z,1.87
2017-11-13T13:27:01.712Z,1.77
2017-11-13T13:30:25.245Z,1.70
2017-11-13T13:33:49.819Z,2.00
2017-11-13T13:37:13.379Z,1.57
2017-11-13T13:40:36.882Z,1.97
2017-11-13T13:44:01.313Z,1.87
2017-11-13T13:47:25.576Z,1.63
2017-11-13T13:50:49.852Z,2.40
2017-11-13T13:54:13.397Z,1.80
2017-11-13T13:57:37.640Z,1.50
2017-11-13T14:01:01.965Z,2.33
2017-11-13T14:04:25.570Z,2.07
2017-11-13T14:07:49.080Z,1.80
2017-11-13T14:11:13.383Z,2.23
2017-11-13T14:14:37.664Z,1.87
2017-11-13T14:18:01.966Z,1.90
2017-11-13T14:21:25.515Z,2.70
2017-11-13T14:24:49.075Z,1.80
2017-11-13T14:28:12.622Z,1.57
2017-11-13T14:31:36.286Z,1.73
2017-11-13T14:34:59.910Z,1.37
2017-11-13T14:38:23.415Z,1.40
2017-11-13T14:41:46.916Z,1.80
2017-11-13T14:45:10.413Z,1.90
2017-11-13T14:48:33.983Z,1.27
2017-11-13T14:51:57.516Z,1.67
2017-11-13T14:55:20.991Z,2.70
2017-11-13T14:58:44.688Z,2.00
2017-11-13T15:02:08.186Z,2.10
2017-11-13T15:05:31.733Z,1.80
2017-11-13T15:08:55.256Z,1.30
2017-11-13T15:12:18.840Z,1.70
2017-11-13T15:15:42.438Z,2.17
2017-11-13T15:19:06.101Z,1.57
2017-11-13T15:22:29.628Z,1.77
2017-11-13T15:25:53.109Z,1.50
2017-11-13T15:29:17.364Z,1.90
2017-11-13T15:32:41.161Z,1.47
2017-11-13T15:36:04.703Z,1.43
2017-11-13T15:39:28.267Z,1.90
2017-11-13T15:42:51.772Z,1.83
2017-11-13T15:46:15.256Z,1.93
2017-11-13T15:49:38.830Z,2.10
2017-11-13T15:53:02.329Z,2.13
2017-11-13T15:56:26.669Z,2.20
2017-11-13T15:59:50.759Z,1.93
2017-11-13T16:03:14.243Z,1.97
2017-11-13T16:06:38.577Z,1.77
2017-11-13T16:10:02.916Z,2.70
2017-11-13T16:13:26.435Z,2.30
2017-11-13T16:16:50.887Z,3.10
2017-11-13T16:20:14.339Z,2.20
2017-11-13T16:23:37.871Z,2.33
2017-11-13T16:27:01.538Z,2.37
2017-11-13T16:30:25.054Z,3.40
2017-11-13T16:33:48.657Z,2.43
2017-11-13T16:37:12.460Z,2.80
2017-11-13T16:40:35.973Z,2.53
2017-11-13T16:43:59.474Z,1.80
2017-11-13T16:47:22.946Z,1.87
2017-11-13T16:50:46.479Z,2.40
2017-11-13T16:54:10.596Z,2.23
2017-11-13T16:57:34.095Z,2.83
2017-11-13T17:00:57.604Z,2.70
2017-11-13T17:04:21.871Z,2.10
2017-11-13T17:07:45.378Z,2.30
2017-11-13T17:11:10.628Z,1.50
2017-11-13T17:14:34.130Z,2.70
2017-11-13T17:17:57.781Z,1.90
2017-11-13T17:21:21.424Z,2.20
2017-11-13T17:24:44.956Z,2.20
2017-11-13T17:28:09.966Z,2.23
2017-11-13T17:31:34.238Z,2.20
2017-11-13T17:34:57.870Z,2.10
2017-11-13T17:38:21.374Z,1.70
2017-11-13T17:41:44.872Z,2.33
2017-11-13T17:45:08.351Z,1.93
2017-11-13T17:48:33.380Z,2.07
2017-11-13T17:51:57.807Z,2.00
2017-11-13T17:55:21.313Z,1.87
2017-11-13T17:58:46.598Z,2.30
2017-11-13T18:02:10.235Z,1.97
2017-11-13T18:05:34.501Z,2.13
2017-11-13T18:08:57.977Z,2.17
2017-11-13T18:12:22.240Z,1.10
2017-11-13T18:15:46.646Z,2.73
2017-11-13T18:19:10.142Z,2.73
2017-11-13T18:22:34.493Z,1.73
2017-11-13T18:25:58.003Z,1.93
2017-11-13T18:29:22.264Z,1.70
2017-11-13T18:32:45.757Z,1.57
2017-11-13T18:36:10.915Z,1.30
2017-11-13T18:39:34.417Z,2.03
2017-11-13T18:42:57.924Z,1.67
2017-11-13T18:46:22.197Z,1.80
2017-11-13T18:49:46.111Z,2.13
2017-11-13T18:53:10.656Z,1.53
2017-11-13T18:56:34.145Z,2.17
2017-11-13T18:59:57.642Z,1.87
2017-11-13T19:03:21.868Z,1.77
2017-11-13T19:06:45.406Z,1.60
2017-11-13T19:10:09.689Z,2.37
2017-11-13T19:13:33.265Z,1.97
2017-11-13T19:16:57.581Z,1.70
2017-11-13T19:20:21.873Z,1.80
2017-11-13T19:23:45.566Z,1.43
2017-11-13T19:27:09.078Z,1.90
2017-11-13T19:30:33.113Z,2.37
2017-11-13T19:33:56.643Z,1.80
2017-11-13T19:37:20.164Z,2.40
2017-11-13T19:40:43.701Z,2.00
2017-11-13T19:44:07.999Z,2.23
2017-11-13T19:47:32.989Z,2.80
2017-11-13T19:50:58.078Z,1.80
2017-11-13T19:54:21.663Z,1.43
2017-11-13T19:57:45.181Z,1.90
2017-11-13T20:01:10.399Z,1.97
2017-11-13T20:04:33.906Z,2.00
2017-11-13T20:07:57.462Z,1.80
2017-11-13T20:11:21.634Z,2.17
2017-11-13T20:14:45.155Z,1.77
2017-11-13T20:18:08.781Z,2.20
2017-11-13T20:21:33.039Z,1.80
2017-11-13T20:24:57.330Z,2.33
2017-11-13T20:28:21.600Z,2.70
2017-11-13T20:31:45.145Z,1.70
2017-11-13T20:35:08.714Z,2.00
2017-11-13T20:38:32.695Z,1.93
2017-11-13T20:41:56.238Z,2.37
2017-11-13T20:45:20.704Z,2.40
2017-11-13T20:48:44.267Z,2.00
2017-11-13T20:52:07.794Z,2.00
2017-11-13T20:55:31.373Z,2.37
2017-11-13T20:58:55.640Z,2.37
2017-11-13T21:02:19.900Z,1.67
2017-11-13T21:05:44.939Z,2.10
2017-11-13T21:09:09.394Z,2.37
2017-11-13T21:12:32.937Z,2.60
2017-11-13T21:15:56.448Z,2.60
2017-11-13T21:19:19.922Z,2.30
2017-11-13T21:22:44.148Z,2.47
2017-11-13T21:26:07.842Z,2.23
2017-11-13T21:29:31.416Z,2.30
2017-11-13T21:32:55.653Z,2.70
2017-11-13T21:36:19.196Z,2.30
2017-11-13T21:39:42.697Z,2.00
2017-11-13T21:43:06.208Z,2.43
2017-11-13T21:46:31.161Z,2.90
2017-11-13T21:49:54.697Z,2.90
2017-11-13T21:53:18.211Z,2.37
2017-11-13T21:56:41.948Z,2.80
2017-11-13T22:00:05.434Z,2.60
2017-11-13T22:03:28.903Z,2.90
2017-11-13T22:06:52.531Z,2.30
2017-11-13T22:10:16.068Z,2.50
2017-11-13T22:13:39.567Z,2.40
2017-11-13T22:17:03.117Z,2.63
2017-11-13T22:20:26.584Z,2.50
2017-11-13T22:23:50.077Z,2.17
2017-11-13T22:27:13.613Z,2.37
2017-11-13T22:30:37.101Z,3.30
2017-11-13T22:34:00.652Z,1.87
2017-11-13T22:37:24.141Z,2.60
2017-11-13T22:40:47.648Z,2.07
2017-11-13T22:44:11.164Z,2.53
2017-11-13T22:47:34.645Z,2.40
2017-11-13T22:50:58.116Z,2.40
2017-11-13T22:54:21.600Z,2.20
2017-11-13T22:57:45.085Z,3.00
2017-11-13T23:01:08.570Z,2.57
2017-11-13T23:04:32.099Z,2.60
2017-11-13T23:07:55.680Z,2.80
2017-11-13T23:11:19.222Z,2.13
2017-11-13T23:14:43.504Z,2.20
2017-11-13T23:18:07.030Z,2.20
2017-11-13T23:21:30.546Z,2.70
2017-11-13T23:24:54.040Z,2.13
2017-11-13T23:28:17.569Z,2.53
2017-11-13T23:31:41.852Z,2.23
2017-11-13T23:35:05.382Z,3.00
2017-11-13T23:38:28.883Z,2.47
2017-11-13T23:41:52.370Z,2.87
2017-11-13T23:45:15.871Z,2.20
2017-11-13T23:48:40.147Z,2.10
2017-11-13T23:52:05.252Z,2.33
2017-11-13T23:55:29.556Z,2.80
2017-11-13T23:58:53.816Z,2.87
